createdAt,value
2018-09-12T00:00:10.432Z,19.40
2018-09-12T00:02:37.957Z,19.40
2018-09-12T00:05:05.568Z,19.50
2018-09-12T00:07:33.105Z,19.40
2018-09-12T00:10:00.593Z,19.40
2018-09-12T00:12:28.165Z,19.30
2018-09-12T00:14:55.766Z,19.20
2018-09-12T00:17:23.293Z,19.20
2018-09-12T00:19:50.793Z,19.10
2018-09-12T00:22:18.697Z,19.10
2018-09-12T00:24:46.282Z,19.10
2018-09-12T00:27:13.821Z,19.00
2018-09-12T00:29:41.365Z,19.00
2018-09-12T00:32:08.854Z,19.00
2018-09-12T00:34:36.371Z,19.00
2018-09-12T00:37:03.913Z,18.80
2018-09-12T00:39:31.431Z,18.90
2018-09-12T00:41:58.949Z,18.90
2018-09-12T00:44:26.455Z,18.90
2018-09-12T00:46:53.970Z,18.90
2018-09-12T00:49:21.448Z,18.90
2018-09-12T00:51:48.982Z,18.80
2018-09-12T00:54:16.533Z,18.80
2018-09-12T00:56:44.038Z,18.70
2018-09-12T00:59:11.576Z,18.70
2018-09-12T01:01:39.075Z,18.70
2018-09-12T01:04:06.860Z,18.60
2018-09-12T01:06:34.397Z,18.50
2018-09-12T01:09:01.899Z,18.50
2018-09-12T01:11:29.523Z,18.40
2018-09-12T01:13:57.035Z,18.40
2018-09-12T01:16:24.593Z,18.40
2018-09-12T01:18:52.107Z,18.30
2018-09-12T01:21:19.621Z,18.30
2018-09-12T01:23:47.130Z,18.20
2018-09-12T01:26:14.618Z,18.10
2018-09-12T01:28:42.237Z,18.00
2018-09-12T01:31:09.741Z,18.00
2018-09-12T01:33:37.258Z,18.00
2018-09-12T01:36:04.823Z,18.00
2018-09-12T01:38:32.338Z,17.90
2018-09-12T01:40:59.925Z,17.90
2018-09-12T01:43:27.454Z,17.90
2018-09-12T01:45:55.038Z,17.90
2018-09-12T01:48:22.510Z,17.80
2018-09-12T01:50:50.019Z,17.80
2018-09-12T01:53:17.490Z,17.80
2018-09-12T01:55:45.016Z,17.80
2018-09-12T01:58:12.591Z,17.70
2018-09-12T02:00:41.220Z,17.80
2018-09-12T02:03:09.145Z,17.80
2018-09-12T02:05:37.311Z,17.80
2018-09-12T02:08:04.873Z,17.70
2018-09-12T02:10:32.406Z,17.80
2018-09-12T02:12:59.933Z,17.80
2018-09-12T02:15:27.448Z,17.80
2018-09-12T02:17:54.942Z,17.70
2018-09-12T02:20:22.534Z,17.80
2018-09-12T02:22:50.036Z,17.70
2018-09-12T02:25:17.571Z,17.70
2018-09-12T02:27:45.168Z,17.60
2018-09-12T02:30:12.706Z,17.60
2018-09-12T02:32:40.219Z,17.60
2018-09-12T02:35:07.764Z,17.60
2018-09-12T02:37:35.282Z,17.50
2018-09-12T02:40:02.914Z,17.50
2018-09-12T02:42:30.866Z,17.60
2018-09-12T02:44:58.372Z,17.50
2018-09-12T02:47:31.700Z,17.50
2018-09-12T02:49:59.202Z,17.40
2018-09-12T02:52:26.841Z,17.40
2018-09-12T02:54:54.370Z,17.30
2018-09-12T02:57:21.868Z,17.30
2018-09-12T02:59:49.416Z,17.30
2018-09-12T03:02:16.952Z,17.30
2018-09-12T03:04:44.454Z,17.20
2018-09-12T03:07:12.044Z,17.20
2018-09-12T03:09:39.624Z,17.20
2018-09-12T03:12:07.143Z,17.20
2018-09-12T03:14:34.661Z,17.10
2018-09-12T03:17:02.314Z,17.10
2018-09-12T03:19:29.830Z,17.00
2018-09-12T03:21:57.333Z,17.00
2018-09-12T03:24:24.959Z,17.00
2018-09-12T03:26:52.471Z,17.00
2018-09-12T03:29:20.042Z,16.90
2018-09-12T03:31:47.625Z,17.00
2018-09-12T03:34:15.126Z,16.90
2018-09-12T03:36:42.619Z,16.80
2018-09-12T03:39:11.276Z,16.90
2018-09-12T03:41:39.334Z,16.90
2018-09-12T03:44:06.890Z,16.90
2018-09-12T03:46:34.467Z,16.90
2018-09-12T03:49:01.989Z,16.90
2018-09-12T03:51:29.481Z,16.90
2018-09-12T03:53:57.001Z,16.80
2018-09-12T03:56:24.496Z,16.80
2018-09-12T03:58:52.064Z,16.80
2018-09-12T04:01:19.615Z,16.80
2018-09-12T04:03:47.232Z,16.80
2018-09-12T04:06:14.741Z,16.80
2018-09-12T04:08:42.307Z,16.80
2018-09-12T04:11:09.806Z,16.90
2018-09-12T04:13:37.323Z,16.90
2018-09-12T04:16:04.900Z,17.00
2018-09-12T04:18:32.464Z,17.00
2018-09-12T04:20:59.968Z,17.10
2018-09-12T04:23:27.513Z,17.10
2018-09-12T04:25:55.018Z,17.20
2018-09-12T04:28:22.575Z,17.10
2018-09-12T04:30:50.178Z,17.20
2018-09-12T04:33:17.678Z,17.20
2018-09-12T04:35:45.184Z,17.20
2018-09-12T04:38:12.730Z,17.20
2018-09-12T04:40:40.268Z,17.10
2018-09-12T04:43:07.846Z,17.00
2018-09-12T04:45:35.374Z,17.00
2018-09-12T04:48:02.878Z,17.00
2018-09-12T04:50:30.406Z,17.00
2018-09-12T04:52:58.000Z,17.00
2018-09-12T04:55:25.522Z,17.00
2018-09-12T04:57:53.230Z,17.00
2018-09-12T05:00:20.814Z,17.00
2018-09-12T05:02:48.299Z,17.10
2018-09-12T05:05:15.820Z,17.10
2018-09-12T05:07:43.342Z,17.10
2018-09-12T05:10:10.922Z,17.10
2018-09-12T05:12:38.424Z,17.10
2018-09-12T05:15:06.134Z,17.20
2018-09-12T05:17:33.706Z,17.20
2018-09-12T05:20:01.308Z,17.20
2018-09-12T05:22:28.839Z,17.20
2018-09-12T05:24:56.373Z,17.20
2018-09-12T05:27:24.092Z,17.30
2018-09-12T05:29:51.615Z,17.30
2018-09-12T05:32:19.115Z,17.30
2018-09-12T05:34:46.641Z,17.40
2018-09-12T05:37:14.158Z,17.40
2018-09-12T05:39:41.691Z,17.40
2018-09-12T05:42:09.224Z,17.50
2018-09-12T05:44:36.725Z,17.60
2018-09-12T05:47:04.332Z,17.60
2018-09-12T05:49:31.879Z,17.60
2018-09-12T05:51:59.396Z,17.70
2018-09-12T05:54:26.914Z,17.80
2018-09-12T05:56:54.440Z,17.80
2018-09-12T05:59:21.956Z,17.90
2018-09-12T06:01:49.469Z,17.90
2018-09-12T06:04:17.014Z,17.90
2018-09-12T06:06:44.533Z,18.00
2018-09-12T06:09:12.087Z,18.00
2018-09-12T06:11:39.618Z,18.00
2018-09-12T06:14:07.230Z,18.00
2018-09-12T06:16:34.701Z,18.10
2018-09-12T06:19:02.293Z,18.10
2018-09-12T06:21:29.804Z,18.20
2018-09-12T06:23:57.324Z,18.20
2018-09-12T06:26:25.026Z,18.30
2018-09-12T06:28:52.555Z,18.30
2018-09-12T06:31:20.108Z,18.40
2018-09-12T06:33:47.613Z,18.40
2018-09-12T06:36:15.104Z,18.50
2018-09-12T06:38:42.609Z,18.60
2018-09-12T06:41:10.135Z,18.60
2018-09-12T06:43:37.609Z,18.60
2018-09-12T06:46:05.110Z,18.70
2018-09-12T06:48:32.618Z,18.70
2018-09-12T06:51:00.134Z,18.70
2018-09-12T06:53:27.624Z,18.80
2018-09-12T06:55:55.128Z,18.80
2018-09-12T06:58:22.610Z,18.90
2018-09-12T07:00:50.125Z,18.80
2018-09-12T07:03:17.662Z,18.80
2018-09-12T07:05:45.185Z,18.90
2018-09-12T07:08:12.686Z,18.90
2018-09-12T07:10:40.230Z,19.00
2018-09-12T07:13:07.730Z,19.10
2018-09-12T07:15:35.254Z,19.10
2018-09-12T07:18:02.816Z,19.10
2018-09-12T07:20:30.342Z,19.20
2018-09-12T07:22:57.860Z,19.40
2018-09-12T07:25:25.364Z,19.40
2018-09-12T07:27:52.886Z,19.50
2018-09-12T07:30:20.465Z,19.50
2018-09-12T07:32:48.160Z,19.60
2018-09-12T07:35:15.692Z,19.70
2018-09-12T07:37:43.215Z,19.70
2018-09-12T07:40:10.828Z,19.70
2018-09-12T07:42:38.326Z,19.80
2018-09-12T07:45:06.234Z,19.90
2018-09-12T07:47:33.797Z,19.90
2018-09-12T07:50:01.322Z,20.00
2018-09-12T07:52:28.834Z,20.10
2018-09-12T07:54:56.397Z,20.20
2018-09-12T07:57:24.119Z,20.30
2018-09-12T07:59:51.695Z,20.30
2018-09-12T08:02:19.277Z,20.30
2018-09-12T08:04:46.795Z,20.20
2018-09-12T08:07:14.349Z,20.10
2018-09-12T08:09:41.905Z,20.00
2018-09-12T08:12:09.815Z,20.10
2018-09-12T08:14:37.369Z,20.10
2018-09-12T08:17:05.284Z,20.10
2018-09-12T08:19:32.907Z,20.20
2018-09-12T08:22:00.425Z,20.30
2018-09-12T08:24:27.953Z,20.40
2018-09-12T08:26:55.461Z,20.50
2018-09-12T08:29:22.987Z,20.50
2018-09-12T08:31:50.516Z,20.60
2018-09-12T08:34:18.103Z,20.60
2018-09-12T08:36:45.644Z,20.60
2018-09-12T08:39:13.625Z,20.70
2018-09-12T08:41:41.526Z,20.70
2018-09-12T08:44:09.593Z,20.70
2018-09-12T08:46:38.210Z,20.60
2018-09-12T08:49:05.729Z,20.60
2018-09-12T08:51:33.527Z,20.60
2018-09-12T08:54:01.074Z,20.60
2018-09-12T08:56:28.585Z,20.60
2018-09-12T08:58:56.341Z,20.60
2018-09-12T09:01:23.977Z,20.60
2018-09-12T09:03:51.475Z,20.50
2018-09-12T09:06:18.974Z,20.60
2018-09-12T09:08:46.607Z,20.60
2018-09-12T09:11:14.126Z,20.70
2018-09-12T09:13:41.647Z,20.70
2018-09-12T09:16:09.165Z,20.90
2018-09-12T09:18:36.682Z,20.90
2018-09-12T09:21:04.183Z,21.00
2018-09-12T09:23:31.797Z,20.70
2018-09-12T09:25:59.337Z,20.50
2018-09-12T09:28:26.887Z,20.30
2018-09-12T09:30:54.436Z,20.00
2018-09-12T09:33:21.944Z,19.80
2018-09-12T09:35:49.480Z,19.70
2018-09-12T09:38:17.009Z,19.50
2018-09-12T09:40:44.513Z,19.50
2018-09-12T09:43:12.003Z,19.40
2018-09-12T09:45:39.534Z,19.40
2018-09-12T09:48:07.133Z,19.50
2018-09-12T09:50:34.577Z,19.60
2018-09-12T10:02:58.697Z,19.70
2018-09-12T10:05:31.926Z,20.20
2018-09-12T10:08:05.119Z,20.20
2018-09-12T10:10:32.653Z,19.90
2018-09-12T10:13:00.217Z,19.90
2018-09-12T10:15:27.725Z,19.70
2018-09-12T10:17:55.243Z,19.50
2018-09-12T10:20:22.782Z,19.60
2018-09-12T10:22:50.365Z,19.70
2018-09-12T10:25:17.873Z,20.00
2018-09-12T10:27:45.401Z,19.90
2018-09-12T10:30:13.001Z,20.00
2018-09-12T10:32:40.515Z,19.90
2018-09-12T10:35:08.041Z,19.90
2018-09-12T10:37:35.563Z,19.90
2018-09-12T10:40:03.194Z,19.80
2018-09-12T10:42:30.699Z,19.80
2018-09-12T10:44:58.232Z,19.80
2018-09-12T10:47:25.780Z,19.80
2018-09-12T10:49:53.748Z,19.80
2018-09-12T10:52:21.337Z,19.70
2018-09-12T10:54:48.877Z,19.80
2018-09-12T10:57:16.511Z,19.90
2018-09-12T10:59:44.038Z,19.80
2018-09-12T11:02:11.529Z,19.90
2018-09-12T11:04:39.105Z,20.10
2018-09-12T11:07:06.653Z,20.10
2018-09-12T11:09:34.186Z,20.10
2018-09-12T11:12:01.883Z,20.10
2018-09-12T11:14:29.389Z,20.30
2018-09-12T11:16:56.975Z,20.50
2018-09-12T11:19:24.528Z,20.70
2018-09-12T11:21:52.422Z,20.70
2018-09-12T11:24:19.945Z,20.90
2018-09-12T11:26:47.476Z,21.00
2018-09-12T11:29:15.029Z,21.00
2018-09-12T11:31:42.534Z,20.90
2018-09-12T11:34:10.117Z,21.10
2018-09-12T11:36:37.649Z,21.20
2018-09-12T11:39:07.994Z,21.30
2018-09-12T11:41:35.506Z,21.50
2018-09-12T11:44:03.078Z,21.40
2018-09-12T11:46:30.601Z,21.70
2018-09-12T11:48:58.184Z,21.80
2018-09-12T11:51:25.760Z,21.90
2018-09-12T11:53:53.293Z,21.90
2018-09-12T11:56:21.232Z,21.80
2018-09-12T11:58:48.746Z,21.80
2018-09-12T12:01:16.330Z,21.60
2018-09-12T12:03:43.867Z,21.50
2018-09-12T12:06:11.472Z,21.60
2018-09-12T12:08:38.965Z,21.70
2018-09-12T12:11:06.458Z,21.50
2018-09-12T12:13:34.031Z,21.30
2018-09-12T12:16:01.568Z,21.40
2018-09-12T12:18:29.170Z,21.20
2018-09-12T12:20:56.736Z,21.00
2018-09-12T12:23:24.258Z,21.00
2018-09-12T12:25:51.865Z,21.00
2018-09-12T12:28:19.378Z,21.00
2018-09-12T12:30:46.996Z,21.10
2018-09-12T12:33:14.615Z,20.90
2018-09-12T12:35:42.157Z,20.80
2018-09-12T12:38:09.760Z,20.60
2018-09-12T12:40:37.290Z,20.60
2018-09-12T12:43:04.880Z,20.60
2018-09-12T12:45:32.492Z,20.50
2018-09-12T12:48:00.036Z,20.40
2018-09-12T12:50:27.637Z,20.30
2018-09-12T12:52:55.167Z,20.40
2018-09-12T12:55:22.701Z,20.30
2018-09-12T12:57:50.221Z,20.30
2018-09-12T13:00:17.728Z,20.30
2018-09-12T13:02:45.270Z,20.40
2018-09-12T13:05:12.827Z,20.30
2018-09-12T13:07:40.312Z,19.90
2018-09-12T13:10:07.865Z,20.00
2018-09-12T13:12:35.387Z,19.90
2018-09-12T13:15:02.975Z,19.80
2018-09-12T13:17:30.534Z,19.80
2018-09-12T13:19:58.077Z,19.90
2018-09-12T13:22:25.576Z,19.80
2018-09-12T13:24:53.125Z,19.70
2018-09-12T13:27:20.663Z,19.50
2018-09-12T13:29:48.168Z,19.50
2018-09-12T13:32:15.702Z,19.50
2018-09-12T13:34:43.189Z,19.50
2018-09-12T13:37:10.716Z,19.60
2018-09-12T13:39:38.252Z,19.40
2018-09-12T13:42:06.053Z,19.30
2018-09-12T13:44:33.667Z,19.40
2018-09-12T13:47:01.211Z,19.30
2018-09-12T13:49:28.708Z,19.40
2018-09-12T13:51:56.244Z,19.30
2018-09-12T13:54:23.797Z,19.30
2018-09-12T13:56:51.411Z,19.30
2018-09-12T13:59:18.924Z,19.20
2018-09-12T14:01:46.461Z,19.20
2018-09-12T14:04:14.021Z,19.20
2018-09-12T14:06:41.550Z,19.20
2018-09-12T14:09:10.190Z,19.10
2018-09-12T14:11:37.757Z,19.20
2018-09-12T14:14:05.346Z,19.10
2018-09-12T14:16:32.904Z,19.20
2018-09-12T14:19:00.451Z,19.20
2018-09-12T14:21:27.985Z,19.30
2018-09-12T14:23:55.510Z,19.40
2018-09-12T14:26:23.063Z,19.20
2018-09-12T14:28:50.577Z,19.30
2018-09-12T14:31:18.315Z,19.30
2018-09-12T14:33:46.882Z,19.30
2018-09-12T14:36:14.395Z,19.30
2018-09-12T14:38:41.925Z,19.40
2018-09-12T14:41:09.501Z,19.40
2018-09-12T14:43:37.006Z,19.50
2018-09-12T14:46:04.689Z,19.60
2018-09-12T14:48:32.218Z,19.60
2018-09-12T14:50:59.761Z,19.40
2018-09-12T14:53:27.273Z,19.60
2018-09-12T14:55:54.789Z,19.60
2018-09-12T14:58:22.302Z,19.70
2018-09-12T15:00:52.903Z,19.80
2018-09-12T15:03:20.927Z,19.80
2018-09-12T15:05:48.527Z,19.80
2018-09-12T15:08:16.117Z,19.80
2018-09-12T15:10:43.664Z,19.80
2018-09-12T15:13:11.175Z,19.70
2018-09-12T15:15:38.725Z,19.40
2018-09-12T15:18:06.248Z,19.50
2018-09-12T15:20:33.772Z,19.50
2018-09-12T15:23:01.287Z,19.50
2018-09-12T15:25:28.813Z,19.40
2018-09-12T15:27:56.386Z,19.40
2018-09-12T15:30:23.903Z,19.40
2018-09-12T15:32:51.478Z,19.40
2018-09-12T15:35:18.970Z,19.30
2018-09-12T15:37:46.471Z,19.30
2018-09-12T15:40:13.987Z,19.30
2018-09-12T15:48:26.587Z,19.20
2018-09-12T15:50:54.066Z,19.20
2018-09-12T15:53:21.583Z,19.20
2018-09-12T15:55:49.142Z,19.10
2018-09-12T15:58:16.744Z,19.10
2018-09-12T16:00:44.180Z,19.00
2018-09-12T16:03:11.712Z,19.00
2018-09-12T16:05:39.224Z,18.90
2018-09-12T16:08:06.710Z,18.70
2018-09-12T16:10:34.278Z,18.70
2018-09-12T16:13:01.792Z,18.70
2018-09-12T16:15:29.358Z,18.50
2018-09-12T16:17:56.883Z,18.40
2018-09-12T16:20:24.396Z,18.30
2018-09-12T16:22:51.930Z,18.10
2018-09-12T16:25:19.471Z,18.10
2018-09-12T16:27:46.990Z,18.10
2018-09-12T16:30:14.548Z,18.10
2018-09-12T16:32:42.207Z,17.90
2018-09-12T16:35:09.641Z,17.80
2018-09-12T16:37:37.169Z,17.70
2018-09-12T16:40:04.838Z,17.70
2018-09-12T16:42:32.353Z,17.70
2018-09-12T16:44:59.926Z,17.60
2018-09-12T16:47:27.502Z,17.50
2018-09-12T16:49:55.081Z,17.50
2018-09-12T16:52:22.569Z,17.50
2018-09-12T16:54:51.135Z,17.40
2018-09-12T16:57:17.931Z,17.30
2018-09-12T16:59:45.457Z,17.30
2018-09-12T17:02:13.022Z,17.30
2018-09-12T17:04:40.519Z,17.20
2018-09-12T17:07:08.052Z,17.30
2018-09-12T17:09:35.590Z,17.20
2018-09-12T17:12:03.110Z,17.30
2018-09-12T17:14:30.703Z,17.30
2018-09-12T17:16:58.247Z,17.20
2018-09-12T17:19:25.769Z,17.10
2018-09-12T17:21:53.274Z,17.10
2018-09-12T17:24:20.857Z,17.10
2018-09-12T17:26:48.361Z,17.10
2018-09-12T17:29:15.867Z,17.10
2018-09-12T17:31:43.462Z,17.10
2018-09-12T17:34:11.494Z,16.90
2018-09-12T17:36:39.032Z,16.90
2018-09-12T17:39:07.349Z,16.80
2018-09-12T17:41:34.890Z,16.80
2018-09-12T17:44:02.518Z,16.80
2018-09-12T17:46:30.066Z,16.90
2018-09-12T17:48:57.603Z,17.00
2018-09-12T17:51:25.112Z,17.10
2018-09-12T17:53:52.658Z,17.10
2018-09-12T17:56:20.167Z,17.10
2018-09-12T17:58:48.280Z,17.10
2018-09-12T18:01:15.852Z,17.10
2018-09-12T18:03:43.358Z,17.20
2018-09-12T18:06:11.096Z,17.20
2018-09-12T18:08:38.624Z,17.20
2018-09-12T18:11:06.167Z,17.10
2018-09-12T18:13:33.698Z,17.10
2018-09-12T18:16:01.342Z,17.10
2018-09-12T18:18:28.884Z,17.10
2018-09-12T18:20:56.395Z,17.10
2018-09-12T18:23:23.937Z,17.10
2018-09-12T18:25:51.491Z,17.10
2018-09-12T18:28:19.003Z,17.10
2018-09-12T18:30:46.575Z,17.10
2018-09-12T18:33:14.131Z,17.00
2018-09-12T18:35:41.662Z,16.90
2018-09-12T18:38:09.254Z,16.90
2018-09-12T18:40:36.780Z,16.90
2018-09-12T18:43:04.413Z,17.00
2018-09-12T18:45:31.897Z,17.00
2018-09-12T18:47:59.454Z,16.90
2018-09-12T18:50:26.965Z,16.90
2018-09-12T18:52:54.653Z,16.90
2018-09-12T18:55:22.181Z,16.90
2018-09-12T18:57:49.763Z,16.90
2018-09-12T19:00:17.341Z,16.90
2018-09-12T19:02:44.886Z,16.90
2018-09-12T19:05:12.561Z,16.90
2018-09-12T19:07:40.088Z,16.90
2018-09-12T19:10:07.653Z,16.90
2018-09-12T19:12:35.190Z,17.00
2018-09-12T19:15:02.744Z,17.00
2018-09-12T19:17:30.255Z,17.00
2018-09-12T19:19:57.777Z,17.00
2018-09-12T19:22:25.305Z,17.00
2018-09-12T19:24:52.846Z,17.00
2018-09-12T19:27:20.390Z,17.00
2018-09-12T19:29:47.928Z,17.00
2018-09-12T19:32:15.469Z,17.10
2018-09-12T19:34:42.992Z,17.00
2018-09-12T19:37:10.584Z,17.00
2018-09-12T19:39:38.104Z,17.00
2018-09-12T19:42:05.670Z,16.90
2018-09-12T19:44:33.194Z,17.00
2018-09-12T19:47:00.741Z,17.00
2018-09-12T19:49:28.279Z,17.10
2018-09-12T19:51:55.827Z,17.00
2018-09-12T19:54:23.339Z,17.10
2018-09-12T19:56:50.833Z,17.00
2018-09-12T19:59:18.357Z,17.00
2018-09-12T20:01:45.884Z,17.00
2018-09-12T20:04:13.530Z,17.00
2018-09-12T20:06:41.211Z,16.90
2018-09-12T20:09:10.206Z,16.90
2018-09-12T20:11:37.833Z,16.90
2018-09-12T20:14:05.447Z,16.80
2018-09-12T20:16:32.939Z,16.80
2018-09-12T20:19:00.475Z,16.80
2018-09-12T20:21:28.027Z,16.80
2018-09-12T20:23:55.677Z,16.80
2018-09-12T20:26:23.097Z,16.80
2018-09-12T20:28:51.110Z,16.80
2018-09-12T20:31:18.803Z,16.80
2018-09-12T20:33:46.585Z,16.80
2018-09-12T20:36:14.119Z,16.80
2018-09-12T20:38:41.621Z,16.80
2018-09-12T20:41:09.117Z,16.80
2018-09-12T20:43:36.813Z,16.80
2018-09-12T20:46:04.367Z,16.80
2018-09-12T20:48:31.885Z,16.80
2018-09-12T20:50:59.439Z,16.80
2018-09-12T20:53:27.015Z,16.80
2018-09-12T20:55:54.503Z,16.80
2018-09-12T20:58:22.105Z,16.70
2018-09-12T21:00:49.629Z,16.80
2018-09-12T21:03:17.133Z,16.70
2018-09-12T21:05:44.667Z,16.70
2018-09-12T21:08:12.188Z,16.70
2018-09-12T21:10:39.713Z,16.70
2018-09-12T21:13:07.267Z,16.70
2018-09-12T21:15:34.799Z,16.60
2018-09-12T21:18:02.359Z,16.70
2018-09-12T21:20:29.917Z,16.60
2018-09-12T21:22:57.439Z,16.60
2018-09-12T21:25:24.965Z,16.50
2018-09-12T21:27:52.511Z,16.50
2018-09-12T21:30:20.035Z,16.50
2018-09-12T21:32:47.677Z,16.40
2018-09-12T21:35:15.219Z,16.40
2018-09-12T21:37:42.738Z,16.40
2018-09-12T21:40:10.271Z,16.40
2018-09-12T21:42:37.841Z,16.40
2018-09-12T21:45:05.400Z,16.40
2018-09-12T21:47:32.974Z,16.40
2018-09-12T21:50:00.517Z,16.40
2018-09-12T21:52:28.041Z,16.30
2018-09-12T21:54:55.550Z,16.30
2018-09-12T21:57:23.075Z,16.30
2018-09-12T21:59:50.609Z,16.30
2018-09-12T22:02:18.517Z,16.30
2018-09-12T22:04:46.054Z,16.40
2018-09-12T22:07:13.562Z,16.40
2018-09-12T22:09:41.057Z,16.40
2018-09-12T22:12:08.619Z,16.40
2018-09-12T22:14:36.109Z,16.40
2018-09-12T22:17:03.625Z,16.40
2018-09-12T22:19:31.165Z,16.40
2018-09-12T22:21:58.654Z,16.40
2018-09-12T22:24:26.189Z,16.40
2018-09-12T22:26:53.736Z,16.40
2018-09-12T22:29:21.233Z,16.30
2018-09-12T22:31:48.816Z,16.20
2018-09-12T22:34:16.346Z,16.10
2018-09-12T22:36:43.836Z,16.10
2018-09-12T22:39:11.766Z,16.10
2018-09-12T22:41:39.779Z,16.10
2018-09-12T22:44:07.299Z,16.00
2018-09-12T22:46:34.820Z,16.00
2018-09-12T22:49:02.371Z,16.00
2018-09-12T22:51:29.897Z,16.10
2018-09-12T22:53:57.487Z,16.00
2018-09-12T22:56:25.182Z,16.00
2018-09-12T22:58:52.700Z,16.00
2018-09-12T23:01:20.206Z,16.00
2018-09-12T23:03:47.735Z,16.00
2018-09-12T23:06:15.244Z,16.10
2018-09-12T23:08:42.902Z,16.00
2018-09-12T23:11:10.413Z,16.00
2018-09-12T23:13:37.932Z,15.90
2018-09-12T23:16:05.497Z,15.80
2018-09-12T23:18:33.022Z,15.90
2018-09-12T23:21:00.622Z,15.90
2018-09-12T23:23:28.128Z,15.90
2018-09-12T23:25:55.656Z,15.90
2018-09-12T23:28:23.215Z,16.00
2018-09-12T23:30:50.717Z,16.00
2018-09-12T23:33:18.266Z,16.00
2018-09-12T23:35:45.762Z,16.00
2018-09-12T23:38:13.305Z,16.10
2018-09-12T23:40:40.840Z,16.00
2018-09-12T23:43:08.608Z,15.90
2018-09-12T23:45:36.157Z,15.90
2018-09-12T23:48:03.760Z,16.00
2018-09-12T23:50:31.296Z,16.00
2018-09-12T23:52:58.784Z,16.00
2018-09-12T23:55:26.289Z,16.00
2018-09-12T23:57:53.832Z,15.90
